createdAt,value
2018-06-28T00:01:06.658Z,100840.91
2018-06-28T00:03:12.104Z,100838.02
2018-06-28T00:05:17.500Z,100837.27
2018-06-28T00:07:22.945Z,100843.60
2018-06-28T00:09:28.473Z,100841.77
2018-06-28T00:11:33.972Z,100842.09
2018-06-28T00:13:41.397Z,100839.27
2018-06-28T00:15:46.778Z,100846.42
2018-06-28T00:17:52.648Z,100845.71
2018-06-28T00:19:58.017Z,100846.78
2018-06-28T00:22:03.634Z,100842.55
2018-06-28T00:24:09.116Z,100840.95
2018-06-28T00:26:14.381Z,100838.05
2018-06-28T00:28:19.800Z,100828.90
2018-06-28T00:30:25.160Z,100841.17
2018-06-28T00:32:30.466Z,100837.28
2018-06-28T00:34:36.657Z,100842.23
2018-06-28T00:36:41.998Z,100840.19
2018-06-28T00:38:47.035Z,100835.71
2018-06-28T00:40:52.337Z,100838.96
2018-06-28T00:42:57.659Z,100840.78
2018-06-28T00:45:03.383Z,100838.22
2018-06-28T00:47:08.733Z,100836.16
2018-06-28T00:49:14.101Z,100834.69
2018-06-28T00:51:19.422Z,100835.17
2018-06-28T00:53:24.883Z,100829.73
2018-06-28T00:55:30.298Z,100828.40
2018-06-28T00:57:37.351Z,100830.35
2018-06-28T00:59:42.711Z,100828.38
2018-06-28T01:01:48.086Z,100824.86
2018-06-28T01:03:53.120Z,100827.05
2018-06-28T01:05:58.482Z,100824.75
2018-06-28T01:08:04.114Z,100829.98
2018-06-28T01:10:09.672Z,100829.02
2018-06-28T01:12:15.075Z,100834.69
2018-06-28T01:14:20.062Z,100825.02
2018-06-28T01:16:25.335Z,100820.02
2018-06-28T01:18:30.766Z,100815.06
2018-06-28T01:20:36.804Z,100816.40
2018-06-28T01:22:42.259Z,100818.83
2018-06-28T01:24:47.746Z,100815.66
2018-06-28T01:26:53.251Z,100814.78
2018-06-28T01:28:58.592Z,100823.61
2018-06-28T01:31:03.943Z,100822.39
2018-06-28T01:33:08.986Z,100818.62
2018-06-28T01:35:14.377Z,100813.88
2018-06-28T01:37:19.805Z,100814.36
2018-06-28T01:39:25.435Z,100811.80
2018-06-28T01:41:48.487Z,100805.27
2018-06-28T01:43:53.844Z,100808.05
2018-06-28T01:45:59.219Z,100811.91
2018-06-28T01:48:04.378Z,100814.92
2018-06-28T01:50:09.628Z,100809.08
2018-06-28T01:52:15.098Z,100814.69
2018-06-28T01:54:20.550Z,100804.03
2018-06-28T01:56:25.886Z,100804.95
2018-06-28T01:58:31.279Z,100803.31
2018-06-28T02:00:36.818Z,100806.32
2018-06-28T02:02:42.085Z,100807.14
2018-06-28T02:04:47.450Z,100805.67
2018-06-28T02:06:52.837Z,100809.63
2018-06-28T02:08:58.232Z,100814.80
2018-06-28T02:11:03.669Z,100812.48
2018-06-28T02:13:08.961Z,100810.63
2018-06-28T02:15:14.317Z,100814.58
2018-06-28T02:17:20.013Z,100812.34
2018-06-28T02:19:25.557Z,100811.44
2018-06-28T02:21:30.880Z,100814.41
2018-06-28T02:23:36.821Z,100820.78
2018-06-28T02:25:42.029Z,100811.69
2018-06-28T02:27:47.342Z,100810.08
2018-06-28T02:29:52.749Z,100811.41
2018-06-28T02:31:58.022Z,100811.41
2018-06-28T02:34:03.600Z,100809.73
2018-06-28T02:36:09.000Z,100816.02
2018-06-28T02:38:15.358Z,100820.58
2018-06-28T02:40:20.730Z,100822.70
2018-06-28T02:42:26.003Z,100816.48
2018-06-28T02:44:31.341Z,100809.67
2018-06-28T02:46:36.843Z,100815.70
2018-06-28T02:48:42.270Z,100818.78
2018-06-28T02:50:47.836Z,100814.09
2018-06-28T02:52:53.225Z,100817.74
2018-06-28T02:54:59.165Z,100817.20
2018-06-28T02:57:04.519Z,100817.91
2018-06-28T02:59:09.781Z,100821.52
2018-06-28T03:01:15.106Z,100820.41
2018-06-28T03:03:20.483Z,100819.73
2018-06-28T03:05:25.952Z,100825.53
2018-06-28T03:07:31.259Z,100824.42
2018-06-28T03:09:36.925Z,100819.67
2018-06-28T03:11:42.248Z,100816.66
2018-06-28T03:13:48.034Z,100819.57
2018-06-28T03:15:53.441Z,100821.34
2018-06-28T03:17:58.977Z,100820.89
2018-06-28T03:20:04.680Z,100823.09
2018-06-28T03:22:10.131Z,100818.65
2018-06-28T03:24:15.609Z,100817.75
2018-06-28T03:26:20.911Z,100818.15
2018-06-28T03:28:26.259Z,100823.64
2018-06-28T03:30:31.648Z,100818.25
2018-06-28T03:32:37.037Z,100816.50
2018-06-28T03:34:42.368Z,100819.06
2018-06-28T03:36:47.686Z,100825.89
2018-06-28T03:38:52.940Z,100826.01
2018-06-28T03:40:58.349Z,100825.33
2018-06-28T03:43:03.684Z,100825.62
2018-06-28T03:45:09.033Z,100818.81
2018-06-28T03:47:14.513Z,100824.69
2018-06-28T03:51:14.976Z,100818.05
2018-06-28T03:53:20.403Z,100820.50
2018-06-28T03:55:27.681Z,100826.87
2018-06-28T03:57:33.075Z,100827.43
2018-06-28T03:59:38.360Z,100824.78
2018-06-28T04:01:43.766Z,100828.88
2018-06-28T04:03:49.063Z,100833.41
2018-06-28T04:05:54.439Z,100826.30
2018-06-28T04:07:59.724Z,100827.55
2018-06-28T04:10:05.117Z,100829.34
2018-06-28T04:12:10.434Z,100833.41
2018-06-28T04:14:15.721Z,100832.55
2018-06-28T04:16:21.054Z,100833.02
2018-06-28T04:18:26.418Z,100832.08
2018-06-28T04:20:31.844Z,100834.00
2018-06-28T04:22:37.274Z,100836.66
2018-06-28T04:24:42.751Z,100838.84
2018-06-28T04:26:48.025Z,100839.58
2018-06-28T04:28:53.451Z,100841.76
2018-06-28T04:30:58.756Z,100841.55
2018-06-28T04:33:05.665Z,100835.69
2018-06-28T04:35:10.995Z,100839.11
2018-06-28T04:37:16.342Z,100840.23
2018-06-28T04:39:21.330Z,100833.42
2018-06-28T04:41:26.571Z,100835.87
2018-06-28T04:43:32.059Z,100829.87
2018-06-28T04:45:37.436Z,100838.52
2018-06-28T04:47:42.738Z,100838.34
2018-06-28T04:49:48.146Z,100839.77
2018-06-28T04:51:53.480Z,100846.75
2018-06-28T04:53:58.879Z,100842.77
2018-06-28T04:56:04.290Z,100844.64
2018-06-28T04:58:09.940Z,100838.55
2018-06-28T05:00:15.556Z,100831.52
2018-06-28T05:02:20.893Z,100834.26
2018-06-28T05:04:26.205Z,100838.80
2018-06-28T05:06:31.499Z,100838.95
2018-06-28T05:08:37.097Z,100840.20
2018-06-28T05:10:42.406Z,100839.72
2018-06-28T05:12:47.774Z,100837.33
2018-06-28T05:14:53.083Z,100836.28
2018-06-28T05:16:58.452Z,100832.08
2018-06-28T05:19:04.037Z,100837.09
2018-06-28T05:21:09.449Z,100836.81
2018-06-28T05:23:14.788Z,100839.51
2018-06-28T05:25:20.324Z,100839.70
2018-06-28T05:27:25.661Z,100836.29
2018-06-28T05:29:30.945Z,100831.04
2018-06-28T05:31:37.164Z,100829.65
2018-06-28T05:33:42.480Z,100828.28
2018-06-28T05:35:47.787Z,100836.05
2018-06-28T05:37:53.080Z,100837.44
2018-06-28T05:39:58.446Z,100836.39
2018-06-28T05:42:03.791Z,100836.92
2018-06-28T05:44:09.085Z,100831.00
2018-06-28T05:46:14.506Z,100832.14
2018-06-28T05:48:19.839Z,100823.93
2018-06-28T05:50:24.908Z,100827.73
2018-06-28T05:52:30.171Z,100824.46
2018-06-28T05:54:35.516Z,100827.18
2018-06-28T05:56:40.877Z,100832.55
2018-06-28T05:58:46.214Z,100831.50
2018-06-28T06:00:51.551Z,100833.94
2018-06-28T06:02:56.906Z,100827.56
2018-06-28T06:05:02.267Z,100831.91
2018-06-28T06:07:07.638Z,100824.20
2018-06-28T06:09:13.037Z,100832.64
2018-06-28T06:11:18.397Z,100824.28
2018-06-28T06:13:23.716Z,100828.19
2018-06-28T06:15:29.093Z,100830.48
2018-06-28T06:17:34.515Z,100828.47
2018-06-28T06:19:39.855Z,100831.05
2018-06-28T06:21:45.179Z,100829.27
2018-06-28T06:23:50.512Z,100830.33
2018-06-28T06:25:56.032Z,100834.86
2018-06-28T06:28:01.360Z,100830.36
2018-06-28T06:30:07.601Z,100826.11
2018-06-28T06:32:12.989Z,100823.27
2018-06-28T06:34:18.319Z,100824.67
2018-06-28T06:36:23.776Z,100819.03
2018-06-28T06:38:29.093Z,100817.28
2018-06-28T06:40:34.454Z,100818.27
2018-06-28T06:42:39.789Z,100818.45
2018-06-28T06:44:45.150Z,100816.79
2018-06-28T06:46:50.769Z,100815.70
2018-06-28T06:48:56.274Z,100822.16
2018-06-28T06:51:01.593Z,100822.31
2018-06-28T06:53:06.982Z,100821.56
2018-06-28T06:55:12.289Z,100814.00
2018-06-28T06:57:17.726Z,100803.90
2018-06-28T06:59:23.072Z,100800.52
2018-06-28T07:01:28.428Z,100806.55
2018-06-28T07:03:33.834Z,100798.12
2018-06-28T07:05:39.142Z,100794.34
2018-06-28T07:07:44.478Z,100800.32
2018-06-28T07:09:49.893Z,100796.70
2018-06-28T07:11:55.208Z,100797.75
2018-06-28T07:14:00.544Z,100792.27
2018-06-28T07:16:06.151Z,100796.00
2018-06-28T07:18:11.445Z,100785.35
2018-06-28T07:20:16.878Z,100789.02
2018-06-28T07:22:22.140Z,100786.39
2018-06-28T07:24:28.024Z,100785.35
2018-06-28T07:26:33.381Z,100792.95
2018-06-28T07:28:38.709Z,100782.25
2018-06-28T07:30:44.018Z,100784.30
2018-06-28T07:32:49.461Z,100781.53
2018-06-28T07:34:54.697Z,100777.02
2018-06-28T07:37:00.086Z,100776.93
2018-06-28T07:39:10.005Z,100780.83
2018-06-28T07:41:15.313Z,100771.95
2018-06-28T07:43:20.668Z,100779.19
2018-06-28T07:45:25.993Z,100774.67
2018-06-28T07:47:31.340Z,100771.95
2018-06-28T07:49:37.253Z,100770.91
2018-06-28T07:51:42.550Z,100771.77
2018-06-28T07:53:47.977Z,100767.95
2018-06-28T07:55:53.498Z,100768.73
2018-06-28T07:57:58.832Z,100772.14
2018-06-28T08:00:04.965Z,100760.69
2018-06-28T08:02:10.267Z,100771.33
2018-06-28T08:04:15.743Z,100766.74
2018-06-28T08:06:21.132Z,100763.28
2018-06-28T08:08:26.521Z,100760.34
2018-06-28T08:10:31.992Z,100766.16
2018-06-28T08:12:38.388Z,100771.94
2018-06-28T08:14:43.793Z,100762.87
2018-06-28T08:16:49.096Z,100759.16
2018-06-28T08:18:54.957Z,100748.23
2018-06-28T08:21:00.285Z,100760.24
2018-06-28T08:23:05.737Z,100757.50
2018-06-28T08:25:11.172Z,100761.45
2018-06-28T08:27:16.193Z,100759.30
2018-06-28T08:29:22.281Z,100761.93
2018-06-28T08:31:27.238Z,100752.45
2018-06-28T08:33:32.452Z,100753.76
2018-06-28T08:35:37.781Z,100764.66
2018-06-28T08:37:43.169Z,100755.21
2018-06-28T08:39:48.618Z,100757.52
2018-06-28T08:41:53.905Z,100750.64
2018-06-28T08:43:59.283Z,100758.36
2018-06-28T08:46:04.784Z,100760.38
2018-06-28T08:48:10.270Z,100752.59
2018-06-28T08:50:15.766Z,100753.55
2018-06-28T08:52:21.307Z,100756.38
2018-06-28T08:54:26.754Z,100744.77
2018-06-28T08:56:32.124Z,100766.14
2018-06-28T08:58:37.671Z,100763.59
2018-06-28T09:00:43.058Z,100754.64
2018-06-28T09:02:48.496Z,100740.34
2018-06-28T09:04:53.988Z,100738.02
2018-06-28T09:06:59.371Z,100743.14
2018-06-28T09:09:06.529Z,100731.92
2018-06-28T09:11:11.451Z,100734.16
2018-06-28T09:13:16.817Z,100741.59
2018-06-28T09:15:22.239Z,100732.52
2018-06-28T09:17:27.559Z,100734.05
2018-06-28T09:19:33.174Z,100712.03
2018-06-28T09:21:39.531Z,100721.50
2018-06-28T09:23:44.964Z,100713.99
2018-06-28T09:25:50.306Z,100720.25
2018-06-28T09:27:55.697Z,100716.25
2018-06-28T09:30:01.040Z,100705.98
2018-06-28T09:32:06.488Z,100717.80
2018-06-28T09:34:11.775Z,100715.28
2018-06-28T09:36:17.188Z,100713.99
2018-06-28T09:38:22.527Z,100707.13
2018-06-28T09:40:27.834Z,100708.14
2018-06-28T09:42:33.176Z,100710.54
2018-06-28T09:44:38.528Z,100698.95
2018-06-28T09:46:44.551Z,100702.22
2018-06-28T09:48:49.919Z,100706.48
2018-06-28T09:50:55.279Z,100704.83
2018-06-28T09:53:00.689Z,100697.31
2018-06-28T09:55:06.300Z,100708.45
2018-06-28T09:57:11.400Z,100703.09
2018-06-28T09:59:16.647Z,100697.38
2018-06-28T10:01:22.133Z,100709.69
2018-06-28T10:03:27.503Z,100699.12
2018-06-28T10:05:32.949Z,100703.70
2018-06-28T10:07:38.281Z,100704.73
2018-06-28T10:09:43.627Z,100707.79
2018-06-28T10:11:48.952Z,100702.25
2018-06-28T10:13:54.347Z,100698.36
2018-06-28T10:15:59.907Z,100700.89
2018-06-28T10:18:05.619Z,100690.45
2018-06-28T10:20:10.859Z,100701.02
2018-06-28T10:22:16.411Z,100686.70
2018-06-28T10:24:21.551Z,100683.52
2018-06-28T10:26:26.884Z,100675.77
2018-06-28T10:28:32.726Z,100679.27
2018-06-28T10:30:37.920Z,100679.56
2018-06-28T10:32:43.419Z,100687.64
2018-06-28T10:34:48.679Z,100681.76
2018-06-28T10:36:54.103Z,100673.88
2018-06-28T10:38:59.468Z,100667.50
2018-06-28T10:41:04.855Z,100660.28
2018-06-28T10:43:10.376Z,100662.83
2018-06-28T10:45:15.752Z,100673.81
2018-06-28T10:47:21.163Z,100666.24
2018-06-28T10:49:26.493Z,100683.11
2018-06-28T10:51:31.913Z,100659.35
2018-06-28T10:53:38.130Z,100658.00
2018-06-28T10:55:43.473Z,100654.11
2018-06-28T10:57:49.445Z,100645.72
2018-06-28T10:59:54.850Z,100641.84
2018-06-28T11:02:00.152Z,100637.66
2018-06-28T11:04:05.632Z,100619.64
2018-06-28T11:06:11.068Z,100633.81
2018-06-28T11:08:16.462Z,100636.86
2018-06-28T11:10:21.763Z,100653.06
2018-06-28T11:12:27.198Z,100637.77
2018-06-28T11:14:32.515Z,100637.27
2018-06-28T11:16:38.622Z,100636.42
2018-06-28T11:18:44.248Z,100637.12
2018-06-28T11:20:49.685Z,100624.13
2018-06-28T11:22:55.155Z,100624.82
2018-06-28T11:25:00.551Z,100616.38
2018-06-28T11:27:05.935Z,100616.22
2018-06-28T11:29:11.369Z,100618.42
2018-06-28T11:31:16.983Z,100597.50
2018-06-28T11:33:22.371Z,100594.98
2018-06-28T11:35:27.679Z,100606.95
2018-06-28T11:37:33.094Z,100606.79
2018-06-28T11:39:38.419Z,100598.19
2018-06-28T11:41:43.740Z,100598.86
2018-06-28T11:43:49.158Z,100599.57
2018-06-28T11:45:55.499Z,100598.20
2018-06-28T11:48:00.834Z,100598.88
2018-06-28T11:50:06.364Z,100590.61
2018-06-28T11:52:11.809Z,100593.44
2018-06-28T11:54:17.123Z,100586.88
2018-06-28T11:56:22.826Z,100592.11
2018-06-28T11:58:28.309Z,100589.05
2018-06-28T12:00:33.659Z,100597.48
2018-06-28T12:02:39.692Z,100581.59
2018-06-28T12:04:45.063Z,100591.88
2018-06-28T12:06:50.469Z,100591.36
2018-06-28T12:08:55.859Z,100589.00
2018-06-28T12:11:01.303Z,100584.60
2018-06-28T12:13:06.770Z,100580.23
2018-06-28T12:15:12.168Z,100586.50
2018-06-28T12:17:17.633Z,100581.59
2018-06-28T12:19:23.001Z,100578.41
2018-06-28T12:21:28.375Z,100592.24
2018-06-28T12:23:33.743Z,100577.91
2018-06-28T12:25:39.138Z,100585.18
2018-06-28T12:27:44.561Z,100584.19
2018-06-28T12:29:50.855Z,100584.70
2018-06-28T12:31:56.284Z,100574.75
2018-06-28T12:34:02.035Z,100572.73
2018-06-28T12:36:07.446Z,100571.39
2018-06-28T12:38:12.891Z,100583.17
2018-06-28T12:40:18.235Z,100578.44
2018-06-28T12:42:23.787Z,100576.94
2018-06-28T12:44:29.208Z,100575.75
2018-06-28T12:47:54.212Z,100581.16
2018-06-28T12:49:59.626Z,100582.50
2018-06-28T12:53:03.765Z,100583.00
2018-06-28T12:55:09.504Z,100579.63
2018-06-28T12:57:14.859Z,100569.19
2018-06-28T12:59:21.460Z,100577.28
2018-06-28T13:01:27.415Z,100571.86
2018-06-28T13:03:32.884Z,100579.11
2018-06-28T13:05:38.513Z,100581.59
2018-06-28T13:07:43.501Z,100573.84
2018-06-28T13:09:48.707Z,100576.16
2018-06-28T13:11:54.071Z,100572.45
2018-06-28T13:13:59.528Z,100577.31
2018-06-28T13:16:04.968Z,100572.11
2018-06-28T13:18:10.372Z,100572.77
2018-06-28T13:20:15.858Z,100569.07
2018-06-28T13:22:21.177Z,100561.30
2018-06-28T13:24:26.552Z,100563.67
2018-06-28T13:26:32.095Z,100564.52
2018-06-28T13:28:38.565Z,100563.98
2018-06-28T13:30:43.905Z,100562.84
2018-06-28T13:32:49.265Z,100553.91
2018-06-28T13:34:54.665Z,100557.98
2018-06-28T13:37:00.081Z,100552.44
2018-06-28T13:39:07.174Z,100556.63
2018-06-28T13:41:12.690Z,100547.73
2018-06-28T13:43:17.946Z,100546.94
2018-06-28T13:45:23.350Z,100549.98
2018-06-28T13:47:28.739Z,100546.58
2018-06-28T13:49:34.484Z,100542.06
2018-06-28T13:51:40.024Z,100534.97
2018-06-28T13:53:45.407Z,100543.91
2018-06-28T13:55:50.774Z,100533.11
2018-06-28T13:57:56.172Z,100518.28
2018-06-28T14:00:01.589Z,100521.13
2018-06-28T14:02:07.324Z,100522.00
2018-06-28T14:04:12.828Z,100518.09
2018-06-28T14:06:18.195Z,100517.75
2018-06-28T14:08:23.593Z,100510.83
2018-06-28T14:10:28.912Z,100510.66
2018-06-28T14:12:34.861Z,100507.30
2018-06-28T14:14:40.261Z,100509.48
2018-06-28T14:16:45.789Z,100504.73
2018-06-28T14:18:50.895Z,100501.87
2018-06-28T14:20:56.149Z,100500.50
2018-06-28T14:23:01.572Z,100509.11
2018-06-28T14:25:07.105Z,100506.59
2018-06-28T14:27:12.625Z,100502.52
2018-06-28T14:29:17.985Z,100511.80
2018-06-28T14:31:23.433Z,100503.72
2018-06-28T14:33:29.512Z,100506.08
2018-06-28T14:35:34.933Z,100497.64
2018-06-28T14:37:40.392Z,100488.53
2018-06-28T14:39:45.827Z,100490.53
2018-06-28T14:41:51.224Z,100494.42
2018-06-28T14:43:56.522Z,100489.70
2018-06-28T14:46:01.978Z,100487.48
2018-06-28T14:48:07.425Z,100476.02
2018-06-28T14:50:12.855Z,100471.77
2018-06-28T14:52:18.339Z,100479.02
2018-06-28T14:54:23.805Z,100474.52
2018-06-28T14:56:29.164Z,100468.31
2018-06-28T14:58:34.534Z,100468.30
2018-06-28T15:00:39.911Z,100467.47
2018-06-28T15:02:45.295Z,100471.54
2018-06-28T15:04:50.635Z,100468.16
2018-06-28T15:06:56.074Z,100470.20
2018-06-28T15:09:01.374Z,100462.93
2018-06-28T15:11:06.777Z,100465.14
2018-06-28T15:13:12.180Z,100463.47
2018-06-28T15:15:18.168Z,100463.29
2018-06-28T15:17:23.499Z,100470.73
2018-06-28T15:19:28.883Z,100464.33
2018-06-28T15:21:34.357Z,100470.03
2018-06-28T15:23:39.686Z,100462.44
2018-06-28T15:25:45.200Z,100457.23
2018-06-28T15:27:50.673Z,100460.61
2018-06-28T15:29:56.214Z,100458.56
2018-06-28T15:32:01.791Z,100452.32
2018-06-28T15:34:07.249Z,100453.16
2018-06-28T15:36:13.088Z,100446.59
2018-06-28T15:38:19.346Z,100448.09
2018-06-28T15:40:24.836Z,100444.05
2018-06-28T15:42:30.224Z,100449.42
2018-06-28T15:44:35.634Z,100442.34
2018-06-28T15:46:41.042Z,100443.71
2018-06-28T15:48:46.657Z,100435.28
2018-06-28T15:50:52.052Z,100434.42
2018-06-28T15:52:57.565Z,100435.91
2018-06-28T15:55:02.922Z,100431.19
2018-06-28T15:57:08.306Z,100427.83
2018-06-28T15:59:14.299Z,100429.82
2018-06-28T16:01:19.775Z,100426.59
2018-06-28T16:03:25.177Z,100429.30
2018-06-28T16:05:30.553Z,100425.05
2018-06-28T16:07:35.934Z,100424.04
2018-06-28T16:09:40.997Z,100422.16
2018-06-28T16:11:46.296Z,100422.33
2018-06-28T16:13:51.679Z,100425.88
2018-06-28T16:15:57.085Z,100415.38
2018-06-28T16:18:02.428Z,100415.55
2018-06-28T16:20:07.894Z,100412.31
2018-06-28T16:22:13.376Z,100416.53
2018-06-28T16:24:18.579Z,100412.48
2018-06-28T16:26:23.978Z,100415.19
2018-06-28T16:28:29.384Z,100408.12
2018-06-28T16:30:34.841Z,100407.30
2018-06-28T16:32:39.885Z,100407.70
2018-06-28T16:34:45.183Z,100408.91
2018-06-28T16:36:50.808Z,100415.34
2018-06-28T16:38:56.224Z,100408.10
2018-06-28T16:41:01.667Z,100405.75
2018-06-28T16:43:07.246Z,100402.91
2018-06-28T16:45:12.598Z,100400.89
2018-06-28T16:47:18.031Z,100401.76
2018-06-28T16:49:23.437Z,100402.43
2018-06-28T16:51:28.752Z,100403.09
2018-06-28T16:53:34.262Z,100405.31
2018-06-28T16:55:39.907Z,100405.66
2018-06-28T16:57:45.382Z,100407.34
2018-06-28T16:59:50.859Z,100400.47
2018-06-28T17:01:56.225Z,100403.51
2018-06-28T17:04:01.989Z,100397.30
2018-06-28T17:06:07.507Z,100401.50
2018-06-28T17:08:12.957Z,100407.56
2018-06-28T17:10:18.372Z,100408.73
2018-06-28T17:12:23.732Z,100408.89
2018-06-28T17:14:28.941Z,100425.58
2018-06-28T17:16:34.246Z,100427.09
2018-06-28T17:18:39.647Z,100417.98
2018-06-28T17:20:44.998Z,100416.81
2018-06-28T17:22:50.360Z,100411.44
2018-06-28T17:24:55.726Z,100421.03
2018-06-28T17:27:01.171Z,100418.16
2018-06-28T17:29:06.922Z,100424.70
2018-06-28T17:31:12.289Z,100427.75
2018-06-28T17:33:17.354Z,100432.25
2018-06-28T17:35:22.892Z,100425.18
2018-06-28T17:37:28.342Z,100435.56
2018-06-28T17:39:33.812Z,100444.64
2018-06-28T17:41:39.651Z,100440.59
2018-06-28T17:43:45.149Z,100442.25
2018-06-28T17:45:50.625Z,100437.20
2018-06-28T17:47:55.966Z,100437.55
2018-06-28T17:50:01.379Z,100438.70
2018-06-28T17:52:06.784Z,100433.31
2018-06-28T17:54:12.277Z,100434.16
2018-06-28T17:56:18.007Z,100432.81
2018-06-28T17:58:23.346Z,100425.09
2018-06-28T18:00:28.744Z,100425.09
2018-06-28T18:02:34.253Z,100433.47
2018-06-28T18:04:39.698Z,100433.30
2018-06-28T18:06:45.092Z,100427.69
2018-06-28T18:08:50.465Z,100439.45
2018-06-28T18:10:55.847Z,100441.48
2018-06-28T18:13:01.155Z,100458.42
2018-06-28T18:15:06.955Z,100483.46
2018-06-28T18:17:12.397Z,100480.55
2018-06-28T18:19:18.485Z,100484.36
2018-06-28T18:21:23.916Z,100496.59
2018-06-28T18:23:29.303Z,100496.58
2018-06-28T18:25:34.761Z,100498.05
2018-06-28T18:27:40.150Z,100501.01
2018-06-28T18:29:45.556Z,100497.95
2018-06-28T18:31:51.000Z,100503.91
2018-06-28T18:33:56.479Z,100501.20
2018-06-28T18:36:01.828Z,100496.47
2018-06-28T18:38:07.394Z,100500.18
2018-06-28T18:40:12.950Z,100491.73
2018-06-28T18:42:18.405Z,100501.27
2018-06-28T18:44:23.828Z,100504.71
2018-06-28T18:46:29.337Z,100505.18
2018-06-28T18:48:34.809Z,100504.30
2018-06-28T18:50:40.319Z,100497.84
2018-06-28T18:52:45.759Z,100499.51
2018-06-28T18:54:51.117Z,100500.29
2018-06-28T18:56:56.619Z,100492.70
2018-06-28T18:59:02.145Z,100490.68
2018-06-28T19:01:07.726Z,100492.45
2018-06-28T19:03:13.534Z,100498.11
2018-06-28T19:05:19.419Z,100503.30
2018-06-28T19:07:24.877Z,100496.73
2018-06-28T19:09:35.536Z,100503.94
2018-06-28T19:11:41.184Z,100506.27
2018-06-28T19:13:51.649Z,100505.39
2018-06-28T19:16:02.318Z,100500.79
2018-06-28T19:18:07.898Z,100504.42
2018-06-28T19:20:13.492Z,100505.41
2018-06-28T19:22:24.118Z,100497.64
2018-06-28T19:24:29.727Z,100501.45
2018-06-28T19:26:35.186Z,100501.73
2018-06-28T19:28:40.643Z,100503.34
2018-06-28T19:30:51.247Z,100505.81
2018-06-28T19:32:56.833Z,100510.97
2018-06-28T19:35:03.256Z,100509.62
2018-06-28T19:37:12.541Z,100505.41
2018-06-28T19:39:23.153Z,100506.89
2018-06-28T19:41:33.729Z,100510.73
2018-06-28T19:43:39.276Z,100528.42
2018-06-28T19:45:44.789Z,100519.52
2018-06-28T19:47:50.275Z,100523.72
2018-06-28T19:50:00.944Z,100516.52
2018-06-28T19:52:12.001Z,100523.23
2018-06-28T19:54:17.481Z,100524.30
2018-06-28T19:56:22.964Z,100520.23
2018-06-28T19:58:28.452Z,100518.39
2018-06-28T20:00:39.164Z,100521.22
2018-06-28T20:02:49.812Z,100530.74
2018-06-28T20:04:55.315Z,100534.91
2018-06-28T20:07:00.473Z,100536.55
2018-06-28T20:09:08.765Z,100537.05
2018-06-28T20:11:14.269Z,100537.53
2018-06-28T20:13:24.826Z,100538.87
2018-06-28T20:15:54.986Z,100537.34
2018-06-28T20:18:05.413Z,100535.79
2018-06-28T20:20:15.910Z,100541.28
2018-06-28T20:22:21.457Z,100540.80
2018-06-28T20:24:31.389Z,100540.97
2018-06-28T20:26:41.898Z,100545.75
2018-06-28T20:28:52.676Z,100545.34
2018-06-28T20:31:03.844Z,100549.31
2018-06-28T20:33:14.385Z,100544.38
2018-06-28T20:35:20.258Z,100547.99
2018-06-28T20:37:26.807Z,100549.77
2018-06-28T20:39:32.172Z,100546.02
2018-06-28T20:41:38.197Z,100554.22
2018-06-28T20:43:43.638Z,100554.48
2018-06-28T20:45:49.236Z,100549.30
2018-06-28T20:47:54.804Z,100549.75
2018-06-28T20:50:00.213Z,100550.02
2018-06-28T20:52:05.878Z,100546.79
2018-06-28T20:54:11.291Z,100551.79
2018-06-28T20:56:16.677Z,100546.43
2018-06-28T20:58:22.155Z,100543.03
2018-06-28T21:00:27.851Z,100545.39
2018-06-28T21:02:33.334Z,100545.66
2018-06-28T21:04:39.455Z,100547.65
2018-06-28T21:06:44.859Z,100552.30
2018-06-28T21:08:50.536Z,100549.25
2018-06-28T21:10:56.592Z,100551.88
2018-06-28T21:13:01.990Z,100556.19
2018-06-28T21:15:07.457Z,100554.62
2018-06-28T21:17:13.445Z,100550.73
2018-06-28T21:19:18.861Z,100541.72
2018-06-28T21:21:24.215Z,100542.08
2018-06-28T21:23:29.581Z,100544.63
2018-06-28T21:25:34.681Z,100546.52
2018-06-28T21:27:39.948Z,100540.80
2018-06-28T21:29:45.708Z,100539.95
2018-06-28T21:31:51.153Z,100541.28
2018-06-28T21:33:56.248Z,100541.94
2018-06-28T21:36:01.658Z,100544.03
2018-06-28T21:38:07.080Z,100544.20
2018-06-28T21:40:12.767Z,100535.22
2018-06-28T21:42:18.207Z,100535.58
2018-06-28T21:44:23.612Z,100526.69
2018-06-28T21:46:29.236Z,100530.09
2018-06-28T21:48:34.645Z,100518.52
2018-06-28T21:50:40.132Z,100525.58
2018-06-28T21:52:45.433Z,100528.61
2018-06-28T21:54:50.939Z,100531.42
2018-06-28T21:56:56.426Z,100535.45
2018-06-28T21:59:02.083Z,100532.90
2018-06-28T22:01:07.626Z,100531.42
2018-06-28T22:03:13.362Z,100540.31
2018-06-28T22:05:18.763Z,100539.95
2018-06-28T22:07:24.181Z,100538.25
2018-06-28T22:09:29.585Z,100538.41
2018-06-28T22:11:35.090Z,100541.23
2018-06-28T22:13:40.507Z,100533.98
2018-06-28T22:15:46.013Z,100537.77
2018-06-28T22:17:51.565Z,100532.97
2018-06-28T22:19:57.091Z,100525.36
2018-06-28T22:22:02.424Z,100519.64
2018-06-28T22:24:07.995Z,100522.13
2018-06-28T22:26:13.479Z,100523.36
2018-06-28T22:28:18.913Z,100516.11
2018-06-28T22:30:24.736Z,100510.16
2018-06-28T22:32:30.064Z,100519.53
2018-06-28T22:34:35.516Z,100512.48
2018-06-28T22:36:40.935Z,100517.34
2018-06-28T22:38:46.336Z,100518.45
2018-06-28T22:40:51.672Z,100513.27
2018-06-28T22:42:57.084Z,100522.04
2018-06-28T22:45:02.496Z,100519.30
2018-06-28T22:47:07.860Z,100522.63
2018-06-28T22:49:13.270Z,100519.84
2018-06-28T22:51:18.662Z,100518.17
2018-06-28T22:53:24.093Z,100516.48
2018-06-28T22:55:29.267Z,100509.68
2018-06-28T22:57:34.606Z,100515.69
2018-06-28T22:59:39.986Z,100513.91
2018-06-28T23:01:45.304Z,100518.17
2018-06-28T23:03:50.734Z,100519.24
2018-06-28T23:05:56.120Z,100518.16
2018-06-28T23:08:01.507Z,100523.30
2018-06-28T23:10:07.591Z,100517.23
2018-06-28T23:12:13.078Z,100512.66
2018-06-28T23:14:18.451Z,100515.33
2018-06-28T23:16:24.068Z,100513.14
2018-06-28T23:18:29.430Z,100507.80
2018-06-28T23:20:34.871Z,100513.50
2018-06-28T23:22:45.143Z,100504.63
2018-06-28T23:24:50.445Z,100509.62
2018-06-28T23:26:55.774Z,100501.72
2018-06-28T23:29:01.193Z,100506.38
2018-06-28T23:31:06.776Z,100501.16
2018-06-28T23:33:12.035Z,100504.31
2018-06-28T23:35:17.612Z,100498.61
2018-06-28T23:37:23.018Z,100499.58
2018-06-28T23:39:28.474Z,100496.34
2018-06-28T23:41:33.894Z,100499.11
2018-06-28T23:43:39.775Z,100499.75
2018-06-28T23:45:45.183Z,100501.09
2018-06-28T23:47:50.572Z,100495.09
2018-06-28T23:49:55.917Z,100492.81
2018-06-28T23:52:01.308Z,100500.59
2018-06-28T23:54:06.537Z,100488.39
2018-06-28T23:56:11.992Z,100486.20
2018-06-28T23:58:17.053Z,100482.35
